Time;durP1;ratioP1;P1;durP2;ratioP2;P2;SDS_P1;SDS_P2;PMS_P1;PMS_P2;Temp;Humidity;BMP_temperature;BMP_pressure;BME280_temperature;BME280_humidity;BME280_pressure;Samples;Min_cycle;Max_cycle;Signal;HPM_P1;HPM_P2
2022/09/29 00:02:05;;;;;;;12.02;10.30;;;;;;;6.37;96.78;99926.81;5072823;28;20020;-53
2022/09/29 00:04:30;;;;;;;10.82;9.75;;;;;;;6.36;96.67;99928.63;5067547;28;20509;-55
2022/09/29 00:06:55;;;;;;;15.88;10.40;;;;;;;6.35;96.91;99923.47;5065847;28;20080;-51
2022/09/29 00:09:20;;;;;;;12.35;10.25;;;;;;;6.31;97.06;99925.44;5072593;28;20513;-53
2022/09/29 00:11:46;;;;;;;13.70;10.30;;;;;;;6.30;97.28;99927.25;5066997;28;20041;-52
2022/09/29 00:14:11;;;;;;;12.38;10.02;;;;;;;6.30;96.62;99929.06;5072357;28;20425;-52
2022/09/29 00:16:36;;;;;;;10.63;9.52;;;;;;;6.26;96.01;99930.22;5068760;28;20062;-54
2022/09/29 00:19:02;;;;;;;14.88;10.73;;;;;;;6.24;96.59;99930.34;5072327;28;20017;-54
2022/09/29 00:21:27;;;;;;;10.30;9.25;;;;;;;6.24;96.38;99932.13;5072261;28;20482;-53
2022/09/29 00:23:52;;;;;;;10.68;9.60;;;;;;;6.20;95.97;99936.81;5069540;28;20107;-52
2022/09/29 00:26:20;;;;;;;11.63;9.27;;;;;;;6.17;96.15;99925.63;5064113;28;20052;-53
2022/09/29 00:28:51;;;;;;;10.50;9.32;;;;;;;6.14;96.09;99924.06;5072243;28;20031;-54
2022/09/29 00:31:17;;;;;;;11.93;9.43;;;;;;;6.11;95.73;99927.78;5069239;28;20445;-52
2022/09/29 00:33:42;;;;;;;12.50;9.85;;;;;;;6.10;95.87;99920.81;5072251;28;20020;-53
2022/09/29 00:36:13;;;;;;;13.50;9.93;;;;;;;6.10;96.40;99926.09;5072393;28;20055;-55
2022/09/29 00:38:40;;;;;;;12.40;9.50;;;;;;;6.08;96.38;99924.53;5066908;28;20053;-54
2022/09/29 00:41:07;;;;;;;15.02;9.90;;;;;;;6.06;96.37;99922.00;5066194;28;20025;-55
2022/09/29 00:43:56;;;;;;;11.70;9.57;;;;;;;6.04;96.41;99923.88;5071562;28;20103;-55
2022/09/29 00:46:39;;;;;;;11.98;9.52;;;;;;;6.04;96.62;99918.59;5069854;28;20028;-54
2022/09/29 00:49:29;;;;;;;11.27;9.73;;;;;;;6.01;96.45;99924.13;5071763;28;20489;-54
2022/09/29 00:52:10;;;;;;;12.27;9.95;;;;;;;6.03;96.50;99924.00;5120343;22;20079;-59
2022/09/29 00:54:41;;;;;;;11.68;9.85;;;;;;;5.99;96.35;99926.00;5046852;28;20053;-59
2022/09/29 00:57:10;;;;;;;13.68;10.32;;;;;;;5.95;96.46;99916.63;5050324;28;20060;-59
2022/09/29 00:59:47;;;;;;;12.77;10.95;;;;;;;5.94;96.49;99917.56;5050688;28;20021;-59
2022/09/29 01:02:15;;;;;;;11.90;10.32;;;;;;;5.90;96.32;99918.75;5048538;28;20078;-59
2022/09/29 01:04:40;;;;;;;12.95;10.52;;;;;;;5.87;96.49;99918.97;5049055;28;20026;-59
2022/09/29 01:07:08;;;;;;;12.30;11.10;;;;;;;5.84;96.54;99908.63;5054304;28;20025;-59
2022/09/29 01:09:38;;;;;;;13.60;10.43;;;;;;;5.83;96.69;99912.22;5043896;28;20025;-59
2022/09/29 01:12:04;;;;;;;12.95;10.63;;;;;;;5.81;96.93;99920.25;5043857;28;20030;-58
2022/09/29 01:14:31;;;;;;;12.63;10.50;;;;;;;5.81;96.75;99916.75;5051563;28;20032;-59
2022/09/29 01:16:57;;;;;;;11.52;10.13;;;;;;;5.78;97.16;99912.56;5051022;28;20693;-60
2022/09/29 01:19:41;;;;;;;13.95;10.18;;;;;;;5.78;96.86;99914.34;5049880;28;20036;-60
2022/09/29 01:22:25;;;;;;;13.98;10.38;;;;;;;5.77;96.56;99913.50;5051476;28;20059;-60
2022/09/29 01:25:28;;;;;;;12.63;10.30;;;;;;;5.78;97.13;99916.97;5049972;28;20395;-59
2022/09/29 01:28:33;;;;;;;12.70;10.50;;;;;;;5.75;96.75;99918.06;5044341;28;20021;-60
2022/09/29 01:31:18;;;;;;;13.30;9.70;;;;;;;5.70;96.70;99921.00;5052077;28;20036;-58
2022/09/29 01:33:55;;;;;;;13.85;10.82;;;;;;;5.67;97.04;99918.59;5051366;28;20064;-60
2022/09/29 01:36:47;;;;;;;13.35;10.50;;;;;;;5.69;97.51;99921.13;5050753;28;20036;-59
2022/09/29 01:39:23;;;;;;;12.95;10.32;;;;;;;5.65;97.38;99923.13;5050987;28;20025;-57
2022/09/29 01:42:01;;;;;;;12.10;10.05;;;;;;;5.62;96.82;99915.44;5044143;28;20052;-57
2022/09/29 01:44:42;;;;;;;11.75;10.48;;;;;;;5.62;97.66;99920.72;5062618;28;20036;-58
2022/09/29 01:47:20;;;;;;;12.15;10.55;;;;;;;5.54;96.60;99915.13;5051133;28;20146;-57
2022/09/29 01:50:05;;;;;;;11.88;10.32;;;;;;;5.54;96.63;99918.59;5053658;28;20037;-58
2022/09/29 01:52:37;;;;;;;12.27;10.48;;;;;;;5.53;97.24;99919.56;5056650;28;20044;-58
2022/09/29 01:55:09;;;;;;;14.45;10.82;;;;;;;5.52;98.01;99920.50;5050499;28;20033;-58
2022/09/29 01:57:57;;;;;;;13.07;11.15;;;;;;;5.57;98.39;99930.72;5051337;28;20498;-58
2022/09/29 02:00:25;;;;;;;12.90;10.50;;;;;;;5.56;97.89;99921.13;5056947;28;20047;-58
2022/09/29 02:02:59;;;;;;;16.52;11.73;;;;;;;5.55;97.98;99925.56;5050064;28;20053;-58
2022/09/29 02:05:44;;;;;;;13.73;10.55;;;;;;;5.53;97.56;99922.22;5060331;28;20032;-59
2022/09/29 02:08:18;;;;;;;16.75;11.60;;;;;;;5.49;97.76;99925.16;5051989;28;20332;-58
2022/09/29 02:11:01;;;;;;;12.32;10.32;;;;;;;5.48;97.27;99929.59;5058221;28;20386;-59
2022/09/29 02:13:31;;;;;;;14.43;10.10;;;;;;;5.46;97.03;99925.38;5049517;28;20032;-58
2022/09/29 02:15:58;;;;;;;12.68;10.63;;;;;;;5.43;97.27;99923.81;5057935;28;20094;-58
2022/09/29 02:18:33;;;;;;;14.00;11.18;;;;;;;5.39;98.28;99917.06;5055906;28;20025;-59
2022/09/29 02:21:00;;;;;;;14.27;10.90;;;;;;;5.41;98.01;99932.75;5047845;28;20024;-58
2022/09/29 02:23:25;;;;;;;14.05;11.27;;;;;;;5.39;97.66;99922.31;5062233;28;20016;-58
2022/09/29 02:25:52;;;;;;;11.93;10.70;;;;;;;5.37;97.42;99927.69;5060231;28;20108;-57
2022/09/29 02:28:18;;;;;;;13.73;11.00;;;;;;;5.37;97.87;99927.69;5057367;28;20478;-58
2022/09/29 02:30:44;;;;;;;14.00;11.48;;;;;;;5.37;97.83;99929.50;5060997;28;20056;-58
2022/09/29 02:33:24;;;;;;;13.18;11.50;;;;;;;5.36;97.74;99920.75;5058230;28;20017;-57
2022/09/29 02:36:11;;;;;;;14.27;10.57;;;;;;;5.37;98.09;99935.59;5055253;28;20028;-57
2022/09/29 02:38:53;;;;;;;13.60;11.85;;;;;;;5.30;97.96;99915.09;5052647;28;20499;-58
2022/09/29 02:41:29;;;;;;;13.48;11.50;;;;;;;5.35;98.38;99926.13;5051744;28;20478;-58
2022/09/29 02:44:26;;;;;;;14.93;11.48;;;;;;;5.34;98.05;99922.63;5052525;28;20413;-59
2022/09/29 02:47:21;;;;;;;15.35;11.55;;;;;;;5.34;97.88;99925.28;5051305;28;20028;-58
2022/09/29 02:50:00;;;;;;;13.02;10.95;;;;;;;5.30;97.47;99925.63;5052289;28;20601;-58
2022/09/29 02:52:32;;;;;;;;;;;;;;;5.35;97.01;99926.97;5051403;28;20099;-57
2022/09/29 02:55:17;;;;;;;12.20;10.90;;;;;;;5.28;97.09;99930.13;5053543;28;19956;-58
2022/09/29 02:58:02;;;;;;;13.60;11.50;;;;;;;5.26;97.26;99926.75;5042445;28;20052;-57
2022/09/29 03:00:28;;;;;;;13.63;11.40;;;;;;;5.19;96.97;99935.06;5049750;28;20394;-57
2022/09/29 03:02:54;;;;;;;14.27;11.32;;;;;;;5.19;97.18;99936.88;5052512;28;20025;-57
2022/09/29 03:05:21;;;;;;;15.50;12.68;;;;;;;5.14;97.55;99928.44;5049199;28;20433;-57
2022/09/29 03:07:46;;;;;;;14.90;11.70;;;;;;;5.13;97.27;99929.38;5049238;28;20036;-58
2022/09/29 03:10:14;;;;;;;12.27;11.02;;;;;;;5.12;97.40;99930.34;5057195;28;20730;-57
2022/09/29 03:12:39;;;;;;;13.07;11.70;;;;;;;5.11;97.82;99926.88;5054243;28;20537;-58
2022/09/29 03:15:06;;;;;;;13.27;11.88;;;;;;;5.10;97.44;99934.88;5061008;28;20021;-58
2022/09/29 03:17:32;;;;;;;16.52;11.52;;;;;;;5.06;97.19;99928.97;5049777;28;20037;-58
2022/09/29 03:19:57;;;;;;;13.48;11.82;;;;;;;5.04;97.17;99933.50;5049118;28;20531;-58
2022/09/29 03:22:23;;;;;;;11.88;10.63;;;;;;;5.00;96.72;99924.13;5055909;28;20035;-57
2022/09/29 03:24:48;;;;;;;15.13;11.88;;;;;;;5.02;96.71;99929.31;5059806;28;20037;-58
2022/09/29 03:27:14;;;;;;;12.80;11.50;;;;;;;4.95;96.92;99931.50;5063970;28;20059;-58
2022/09/29 03:29:40;;;;;;;14.70;11.30;;;;;;;4.97;97.02;99932.25;5050031;28;20502;-58
2022/09/29 03:32:05;;;;;;;14.20;11.98;;;;;;;4.93;97.00;99928.97;5051220;28;20028;-57
2022/09/29 03:34:31;;;;;;;15.43;11.85;;;;;;;4.92;96.86;99927.28;5059448;28;20071;-58
2022/09/29 03:36:56;;;;;;;12.05;10.75;;;;;;;4.90;96.68;99925.72;5051158;28;20064;-59
2022/09/29 03:39:22;;;;;;;13.70;11.25;;;;;;;4.90;96.95;99931.81;5051018;28;20044;-58
2022/09/29 03:41:48;;;;;;;13.38;11.80;;;;;;;4.87;96.88;99931.19;5065810;28;20528;-58
2022/09/29 03:44:13;;;;;;;14.18;11.75;;;;;;;4.89;97.26;99929.28;5058314;28;20108;-57
2022/09/29 03:46:39;;;;;;;12.85;11.55;;;;;;;4.85;97.25;99943.59;5056344;28;20033;-56
2022/09/29 03:49:04;;;;;;;14.77;12.13;;;;;;;4.86;97.70;99935.56;5053897;28;20033;-56
2022/09/29 03:51:30;;;;;;;12.15;10.82;;;;;;;4.84;97.42;99934.00;5052906;28;20041;-56
2022/09/29 03:53:55;;;;;;;12.43;11.13;;;;;;;4.82;97.37;99927.06;5068587;28;20032;-58
2022/09/29 03:56:21;;;;;;;15.57;11.75;;;;;;;4.82;97.45;99942.00;5063894;28;20040;-58
2022/09/29 03:58:46;;;;;;;13.82;12.07;;;;;;;4.77;97.74;99931.78;5068382;28;20478;-58
2022/09/29 04:01:11;;;;;;;15.13;11.95;;;;;;;4.77;97.59;99934.41;5062622;28;20105;-57
2022/09/29 04:03:37;;;;;;;12.82;11.52;;;;;;;4.76;97.83;99937.16;5052605;28;20060;-57
2022/09/29 04:06:02;;;;;;;13.18;11.07;;;;;;;4.75;97.62;99946.00;5052775;28;20395;-57
2022/09/29 04:08:28;;;;;;;13.98;11.82;;;;;;;4.74;97.46;99947.78;5061025;28;20024;-59
2022/09/29 04:10:53;;;;;;;15.38;12.43;;;;;;;4.73;97.89;99947.88;5068105;28;20029;-57
2022/09/29 04:13:20;;;;;;;13.98;11.27;;;;;;;4.70;97.88;99946.31;5053713;28;20112;-58
2022/09/29 04:15:49;;;;;;;14.68;11.65;;;;;;;4.70;98.01;99945.47;5055912;28;20025;-57
2022/09/29 04:18:14;;;;;;;15.52;12.05;;;;;;;4.71;97.99;99949.75;5060171;28;20032;-56
2022/09/29 04:20:40;;;;;;;15.10;11.10;;;;;;;4.69;97.71;99951.66;5054650;28;20103;-57
2022/09/29 04:23:05;;;;;;;15.02;11.23;;;;;;;4.68;97.98;99952.59;5052841;28;20500;-57
2022/09/29 04:25:31;;;;;;;12.98;11.68;;;;;;;4.64;97.48;99959.84;5053673;28;20025;-58
2022/09/29 04:27:56;;;;;;;13.73;11.75;;;;;;;4.62;97.10;99956.50;5052260;28;20025;-57
2022/09/29 04:30:21;;;;;;;15.48;12.02;;;;;;;4.60;97.44;99961.00;5052372;28;20082;-57
2022/09/29 04:32:47;;;;;;;14.90;13.02;;;;;;;4.60;97.61;99967.09;5052680;28;20033;-58
2022/09/29 04:35:12;;;;;;;14.27;12.27;;;;;;;4.57;97.83;99963.84;5050723;28;20033;-58
2022/09/29 04:37:37;;;;;;;17.75;11.88;;;;;;;4.61;98.29;99970.56;5051001;28;20377;-57
2022/09/29 04:40:04;;;;;;;13.85;12.18;;;;;;;4.58;98.36;99960.25;5056739;28;20056;-57
2022/09/29 04:42:30;;;;;;;14.00;12.50;;;;;;;4.56;98.32;99963.00;5052185;28;20051;-58
2022/09/29 04:44:55;;;;;;;12.95;11.65;;;;;;;4.54;97.93;99962.25;5056883;28;20035;-56
2022/09/29 04:47:21;;;;;;;15.48;11.20;;;;;;;4.54;98.07;99966.66;5058373;28;20025;-57
2022/09/29 04:49:46;;;;;;;14.90;12.93;;;;;;;4.53;98.17;99968.47;5054521;28;20025;-57
2022/09/29 04:52:12;;;;;;;13.52;11.40;;;;;;;4.51;97.91;99967.69;5067207;28;20048;-57
2022/09/29 04:54:37;;;;;;;15.00;12.73;;;;;;;4.50;98.19;99963.41;5060093;28;20033;-58
2022/09/29 04:57:03;;;;;;;12.80;11.50;;;;;;;4.48;98.11;99967.06;5052019;28;20037;-59
2022/09/29 04:59:28;;;;;;;14.20;12.02;;;;;;;4.47;98.08;99968.84;5059650;28;20122;-58
2022/09/29 05:01:53;;;;;;;16.25;12.88;;;;;;;4.47;98.11;99973.28;5063951;28;20025;-57
2022/09/29 05:04:19;;;;;;;14.63;12.48;;;;;;;4.45;98.08;99978.63;5062351;28;20041;-58
2022/09/29 05:06:44;;;;;;;14.93;12.93;;;;;;;4.44;98.44;99975.13;5055248;28;20029;-57
2022/09/29 05:09:10;;;;;;;16.45;12.75;;;;;;;4.42;98.44;99978.81;5051573;28;20036;-58
2022/09/29 05:11:35;;;;;;;14.15;12.65;;;;;;;4.40;98.11;99983.34;5051690;28;20021;-57
2022/09/29 05:14:00;;;;;;;16.02;12.20;;;;;;;4.40;98.02;99983.34;5058169;28;20029;-58
2022/09/29 05:16:26;;;;;;;15.20;12.88;;;;;;;4.42;98.53;99987.56;5050326;28;20422;-58
2022/09/29 05:18:51;;;;;;;16.35;12.80;;;;;;;4.38;98.42;99990.47;5054857;28;20036;-59
2022/09/29 05:21:17;;;;;;;16.25;13.00;;;;;;;4.38;98.32;99995.72;5061139;28;20398;-58
2022/09/29 05:23:43;;;;;;;15.32;13.15;;;;;;;4.37;98.29;99996.69;5059472;28;20055;-58
2022/09/29 05:26:10;;;;;;;18.27;12.73;;;;;;;4.36;98.33;99993.19;5053267;28;20037;-59
2022/09/29 05:28:38;;;;;;;15.82;13.23;;;;;;;4.36;98.53;100001.09;5062333;28;20344;-59
2022/09/29 05:31:06;;;;;;;14.63;13.07;;;;;;;4.36;98.46;100003.72;5057353;28;20402;-57
2022/09/29 05:33:32;;;;;;;15.18;13.38;;;;;;;4.35;98.63;100002.03;5050152;28;20025;-58
2022/09/29 05:35:57;;;;;;;14.93;13.32;;;;;;;4.35;98.78;100003.84;5053028;28;20029;-59
2022/09/29 05:38:24;;;;;;;16.52;13.02;;;;;;;4.35;98.96;100001.22;5059049;28;20522;-58
2022/09/29 05:40:50;;;;;;;15.40;13.43;;;;;;;4.35;98.83;100007.31;5065392;28;20039;-58
2022/09/29 05:43:15;;;;;;;18.63;14.07;;;;;;;4.34;98.52;100004.78;5065176;28;20024;-59
2022/09/29 05:45:41;;;;;;;15.70;13.68;;;;;;;4.34;98.65;100012.66;5065242;28;20033;-58
2022/09/29 05:48:07;;;;;;;16.33;13.60;;;;;;;4.32;98.57;100014.56;5060674;28;20450;-60
2022/09/29 05:50:40;;;;;;;16.92;13.15;;;;;;;4.33;98.34;100010.97;5067484;28;20024;-59
2022/09/29 05:53:05;;;;;;;16.35;14.10;;;;;;;4.33;98.92;100016.22;5054486;28;20097;-57
2022/09/29 05:55:31;;;;;;;19.13;14.18;;;;;;;4.32;99.34;100018.00;5055095;28;20060;-57
2022/09/29 05:57:56;;;;;;;18.15;14.50;;;;;;;4.33;99.13;100024.09;5056026;28;20043;-57
2022/09/29 06:00:21;;;;;;;16.65;14.32;;;;;;;4.31;98.96;100021.56;5049387;28;20043;-57
2022/09/29 06:02:47;;;;;;;17.83;15.30;;;;;;;4.34;99.50;100023.16;5055705;28;20036;-58
2022/09/29 06:05:12;;;;;;;17.75;14.52;;;;;;;4.35;99.79;100016.97;5055888;28;20029;-58
2022/09/29 06:07:37;;;;;;;18.08;14.20;;;;;;;4.33;99.60;100021.47;5051824;28;20032;-57
2022/09/29 06:10:03;;;;;;;23.52;15.25;;;;;;;4.34;99.54;100028.44;5069095;28;20051;-58
2022/09/29 06:12:34;;;;;;;20.15;16.10;;;;;;;4.32;99.97;100031.16;5052534;28;20437;-58
2022/09/29 06:14:59;;;;;;;16.85;14.63;;;;;;;4.36;99.72;100037.06;5044500;28;20187;-59
2022/09/29 06:17:24;;;;;;;20.73;15.20;;;;;;;4.36;100.00;100037.88;5059301;28;20111;-58
2022/09/29 06:19:51;;;;;;;21.02;15.63;;;;;;;4.38;100.00;100037.78;5052690;28;20044;-58
2022/09/29 06:22:18;;;;;;;18.00;15.05;;;;;;;4.40;100.00;100033.31;5052406;28;20040;-58
2022/09/29 06:24:43;;;;;;;21.88;16.35;;;;;;;4.40;100.00;100036.78;5045181;28;20045;-59
2022/09/29 06:27:09;;;;;;;21.38;16.08;;;;;;;4.43;100.00;100041.00;5045075;28;20444;-59
2022/09/29 06:29:35;;;;;;;20.00;15.60;;;;;;;4.42;100.00;100042.75;5042978;28;20450;-59
2022/09/29 06:32:01;;;;;;;20.08;16.23;;;;;;;4.44;100.00;100037.41;5045999;28;20043;-59
2022/09/29 06:34:26;;;;;;;20.27;15.68;;;;;;;4.47;100.00;100045.09;5047700;28;20048;-59
2022/09/29 06:39:36;;;;;;;19.42;16.58;;;;;;;4.51;100.00;100046.59;5046373;28;20075;-60
2022/09/29 06:42:02;;;;;;;19.13;16.00;;;;;;;4.55;100.00;100055.16;5046126;28;20447;-59
2022/09/29 06:44:29;;;;;;;21.38;16.63;;;;;;;4.56;100.00;100057.69;5048826;28;20027;-57
2022/09/29 06:46:55;;;;;;;22.35;17.42;;;;;;;4.61;100.00;100063.50;5044672;28;20056;-55
2022/09/29 06:49:21;;;;;;;22.27;19.00;;;;;;;4.65;100.00;100058.88;5043707;28;20032;-55
2022/09/29 06:51:47;;;;;;;21.30;18.23;;;;;;;4.68;100.00;100066.56;5047233;28;20387;-59
2022/09/29 06:54:15;;;;;;;21.25;18.10;;;;;;;4.73;100.00;100066.25;5044657;28;20033;-57
2022/09/29 06:56:41;;;;;;;26.52;18.90;;;;;;;4.76;100.00;100064.28;5041375;28;20025;-58
2022/09/29 06:59:07;;;;;;;23.48;18.88;;;;;;;4.78;100.00;100070.28;5045236;28;20506;-58
2022/09/29 07:01:33;;;;;;;22.20;18.50;;;;;;;4.82;100.00;100071.75;5050125;28;20097;-57
2022/09/29 07:04:01;;;;;;;22.45;18.13;;;;;;;4.86;100.00;100069.75;5051965;28;20037;-57
2022/09/29 07:06:28;;;;;;;22.38;18.35;;;;;;;4.92;100.00;100071.16;5050128;28;20078;-57
2022/09/29 07:08:57;;;;;;;24.58;19.58;;;;;;;4.98;100.00;100076.03;5051138;28;20446;-58
2022/09/29 07:11:23;;;;;;;22.85;19.52;;;;;;;5.04;100.00;100080.03;5050852;28;20068;-57
2022/09/29 07:13:50;;;;;;;25.17;18.77;;;;;;;5.07;100.00;100078.06;5050933;28;20466;-58
2022/09/29 07:16:16;;;;;;;24.38;18.92;;;;;;;5.15;100.00;100083.66;5058089;28;20035;-58
2022/09/29 07:18:42;;;;;;;27.70;19.48;;;;;;;5.21;100.00;100073.66;5075105;28;20044;-58
2022/09/29 07:21:10;;;;;;;26.50;19.83;;;;;;;5.31;100.00;100086.13;5067663;28;20032;-58
2022/09/29 07:23:37;;;;;;;26.33;20.27;;;;;;;5.40;100.00;100091.72;5055494;28;20390;-58
2022/09/29 07:26:03;;;;;;;24.50;19.50;;;;;;;5.49;100.00;100094.56;5056727;28;20033;-58
2022/09/29 07:28:29;;;;;;;26.50;20.10;;;;;;;5.59;100.00;100093.94;5055521;28;20029;-58
2022/09/29 07:31:06;;;;;;;25.75;19.65;;;;;;;5.68;100.00;100099.44;5059161;28;20498;-58
2022/09/29 07:33:32;;;;;;;26.08;20.23;;;;;;;5.83;100.00;100091.41;5047807;28;20492;-58
2022/09/29 07:36:00;;;;;;;25.13;19.83;;;;;;;6.00;100.00;100096.41;5055932;28;20065;-58
2022/09/29 07:38:27;;;;;;;27.50;19.60;;;;;;;6.11;100.00;100099.16;5049115;28;20029;-58
2022/09/29 07:40:53;;;;;;;23.75;19.08;;;;;;;6.27;100.00;100101.53;5055797;28;20040;-57
2022/09/29 07:43:18;;;;;;;21.40;18.08;;;;;;;6.42;100.00;100096.97;5059685;28;20459;-59
2022/09/29 07:45:49;;;;;;;26.00;19.08;;;;;;;6.53;100.00;100095.34;5066188;28;20040;-57
2022/09/29 07:48:15;;;;;;;24.88;17.95;;;;;;;6.67;100.00;100103.97;5062776;28;20486;-58
2022/09/29 07:50:40;;;;;;;20.83;16.85;;;;;;;6.73;100.00;100102.69;5059123;28;20118;-57
2022/09/29 07:53:06;;;;;;;24.73;17.55;;;;;;;6.82;100.00;100099.38;5051815;28;20309;-57
2022/09/29 07:55:31;;;;;;;22.77;17.15;;;;;;;6.91;100.00;100110.22;5061645;28;20392;-58
2022/09/29 07:57:56;;;;;;;22.55;17.98;;;;;;;6.99;100.00;100106.03;5055040;28;20025;-58
2022/09/29 08:00:22;;;;;;;22.77;17.33;;;;;;;7.12;100.00;100113.09;5055919;28;20070;-57
2022/09/29 08:02:47;;;;;;;24.17;17.60;;;;;;;7.28;100.00;100118.91;5056382;28;20108;-57
2022/09/29 08:05:12;;;;;;;21.50;17.23;;;;;;;7.44;100.00;100121.22;5058302;28;20031;-58
2022/09/29 08:07:37;;;;;;;23.85;17.40;;;;;;;7.65;100.00;100116.13;5065813;28;20033;-58
2022/09/29 08:10:04;;;;;;;21.27;16.75;;;;;;;7.85;100.00;100116.41;5064065;28;20095;-58
2022/09/29 08:12:29;;;;;;;22.58;17.23;;;;;;;8.12;100.00;100126.66;5053185;28;20033;-57
2022/09/29 08:14:54;;;;;;;19.65;16.55;;;;;;;8.38;100.00;100123.78;5055469;28;20066;-58
2022/09/29 08:17:20;;;;;;;18.75;14.48;;;;;;;8.51;98.23;100130.66;5063513;28;20482;-58
2022/09/29 08:19:45;;;;;;;22.80;15.07;;;;;;;8.75;97.21;100127.00;5068218;28;20024;-58
2022/09/29 08:22:10;;;;;;;16.48;14.70;;;;;;;9.02;97.03;100131.03;5067566;28;20021;-58
2022/09/29 08:24:35;;;;;;;21.08;14.77;;;;;;;9.19;96.05;100140.25;5055546;28;20470;-58
2022/09/29 08:27:04;;;;;;;16.55;13.48;;;;;;;9.37;93.69;100132.59;5062250;28;20024;-57
2022/09/29 08:29:29;;;;;;;15.02;13.50;;;;;;;9.54;91.83;100140.00;5065433;28;20029;-58
2022/09/29 08:31:55;;;;;;;19.20;13.50;;;;;;;9.78;91.91;100138.88;5061774;28;20186;-58
2022/09/29 08:34:21;;;;;;;16.98;13.68;;;;;;;9.96;90.51;100142.63;5062819;28;20036;-58
2022/09/29 08:36:46;;;;;;;20.88;13.60;;;;;;;10.14;88.78;100147.31;5062288;28;20073;-57
2022/09/29 08:39:11;;;;;;;15.70;12.65;;;;;;;10.22;86.98;100155.47;5064744;28;20103;-58
2022/09/29 08:41:55;;;;;;;17.25;11.77;;;;;;;10.26;86.76;100158.69;5057212;28;20029;-57
2022/09/29 08:44:42;;;;;;;15.13;11.98;;;;;;;10.34;86.53;100154.44;5049603;28;20037;-57
2022/09/29 08:47:32;;;;;;;16.30;11.55;;;;;;;10.42;84.74;100160.91;5055061;28;20025;-58
2022/09/29 08:50:13;;;;;;;16.75;11.80;;;;;;;10.55;85.76;100161.50;5058937;28;20074;-58
2022/09/29 08:52:42;;;;;;;14.00;10.75;;;;;;;10.59;83.96;100157.63;5056899;28;20117;-57
2022/09/29 08:55:24;;;;;;;16.42;12.07;;;;;;;10.62;84.21;100159.16;5057596;28;20404;-58
2022/09/29 08:57:56;;;;;;;16.38;11.45;;;;;;;10.58;85.36;100153.28;5058703;28;20394;-59
2022/09/29 09:00:29;;;;;;;15.88;11.45;;;;;;;10.65;84.00;100164.19;5050619;28;20475;-58
2022/09/29 09:03:19;;;;;;;14.98;11.20;;;;;;;10.75;83.09;100173.03;5052441;28;20079;-58
2022/09/29 09:05:44;;;;;;;15.13;11.15;;;;;;;10.82;82.73;100165.38;5057213;28;20036;-58
2022/09/29 09:08:18;;;;;;;17.17;11.52;;;;;;;10.89;83.23;100169.16;5056741;28;20009;-58
2022/09/29 09:10:49;;;;;;;13.88;10.48;;;;;;;10.97;82.42;100176.44;5055740;28;20104;-59
2022/09/29 09:13:30;;;;;;;18.73;10.85;;;;;;;11.07;82.45;100170.19;5058320;28;20028;-58
2022/09/29 09:16:21;;;;;;;14.02;10.68;;;;;;;11.21;83.39;100178.75;5057549;28;20016;-58
2022/09/29 09:19:10;;;;;;;16.88;11.13;;;;;;;11.36;83.57;100180.00;5053632;28;20684;-59
2022/09/29 09:21:46;;;;;;;17.65;10.25;;;;;;;11.46;81.55;100172.88;5054561;28;20112;-58
2022/09/29 09:24:20;;;;;;;12.68;10.00;;;;;;;11.58;81.42;100162.94;5054451;28;20021;-57
2022/09/29 09:26:46;;;;;;;12.98;10.10;;;;;;;11.71;79.13;100170.63;5055657;28;20025;-59
2022/09/29 09:29:27;;;;;;;13.90;10.05;;;;;;;11.97;80.49;100176.22;5055388;28;20035;-58
2022/09/29 09:32:16;;;;;;;13.80;10.48;;;;;;;12.13;81.52;100175.63;5059469;28;20032;-59
2022/09/29 09:34:48;;;;;;;13.63;9.77;;;;;;;12.30;79.07;100170.53;5057239;28;20457;-59
2022/09/29 09:37:24;;;;;;;15.20;9.85;;;;;;;12.62;79.72;100180.75;5056963;28;20104;-58
2022/09/29 09:40:02;;;;;;;10.45;9.35;;;;;;;12.69;78.36;100181.00;5054749;28;20486;-58
2022/09/29 09:42:32;;;;;;;12.90;9.35;;;;;;;12.80;74.90;100177.31;5057211;28;20020;-60
2022/09/29 09:45:17;;;;;;;14.13;8.45;;;;;;;13.07;78.89;100169.31;5056385;28;20021;-58
2022/09/29 09:47:53;;;;;;;12.25;8.90;;;;;;;13.29;76.71;100176.03;5058742;28;20024;-58
2022/09/29 09:50:21;;;;;;;11.70;9.00;;;;;;;13.54;73.25;100170.09;5051459;28;20479;-58
2022/09/29 09:53:04;;;;;;;10.05;7.72;;;;;;;13.67;75.24;100183.91;5053276;28;20049;-58
2022/09/29 09:55:33;;;;;;;7.82;6.60;;;;;;;13.80;72.10;100179.00;5057049;28;20062;-57
2022/09/29 09:57:59;;;;;;;9.25;5.70;;;;;;;13.96;71.88;100180.97;5053187;28;20032;-58
2022/09/29 10:00:25;;;;;;;6.43;5.70;;;;;;;14.18;70.42;100189.47;5053556;28;20029;-58
2022/09/29 10:02:54;;;;;;;8.55;5.68;;;;;;;14.49;71.16;100189.81;5055819;28;20036;-59
2022/09/29 10:05:29;;;;;;;6.63;4.93;;;;;;;14.63;70.77;100188.41;5051974;28;20025;-58
2022/09/29 10:07:55;;;;;;;6.80;5.13;;;;;;;14.89;69.41;100185.66;5051774;28;20367;-58
2022/09/29 10:10:24;;;;;;;5.93;4.90;;;;;;;14.99;69.82;100186.38;5052158;28;20027;-58
2022/09/29 10:13:04;;;;;;;4.97;4.32;;;;;;;15.09;68.41;100180.06;5055199;28;20386;-58
2022/09/29 10:15:53;;;;;;;4.20;3.78;;;;;;;15.28;71.27;100179.75;5050248;28;20032;-59
2022/09/29 10:18:24;;;;;;;5.22;3.30;;;;;;;15.34;64.72;100179.09;5058834;28;20041;-58
2022/09/29 10:20:50;;;;;;;4.43;3.80;;;;;;;15.51;66.33;100187.13;5044394;28;20036;-58
2022/09/29 10:23:33;;;;;;;4.00;3.15;;;;;;;15.69;65.96;100190.50;5052079;28;20025;-59
2022/09/29 10:26:00;;;;;;;6.78;4.47;;;;;;;15.71;65.71;100193.00;5053525;28;20052;-57
2022/09/29 10:28:35;;;;;;;5.07;3.80;;;;;;;15.88;63.35;100199.22;5051260;28;20029;-58
2022/09/29 10:31:00;;;;;;;5.47;4.13;;;;;;;15.97;63.63;100192.00;5047541;28;20083;-59
2022/09/29 10:33:27;;;;;;;7.35;3.95;;;;;;;16.14;62.67;100193.69;5052585;28;20083;-59
2022/09/29 10:36:06;;;;;;;4.35;3.88;;;;;;;16.32;65.38;100193.50;5055522;28;20414;-58
2022/09/29 10:38:31;;;;;;;4.18;3.78;;;;;;;16.44;61.52;100197.47;5045736;28;20093;-58
2022/09/29 10:41:02;;;;;;;6.30;3.65;;;;;;;16.59;62.54;100202.13;5051385;28;20028;-58
2022/09/29 10:43:33;;;;;;;5.03;3.78;;;;;;;16.68;62.28;100201.06;5050918;28;20036;-60
2022/09/29 10:45:58;;;;;;;5.35;4.15;;;;;;;16.80;60.13;100197.00;5055948;28;20071;-58
2022/09/29 10:48:25;;;;;;;6.22;4.10;;;;;;;16.84;59.73;100202.88;5042316;28;20583;-58
2022/09/29 10:50:54;;;;;;;4.82;4.00;;;;;;;16.89;58.69;100200.53;5045547;28;20025;-58
2022/09/29 10:53:34;;;;;;;4.18;3.75;;;;;;;17.08;61.77;100193.88;5049248;28;20598;-57
2022/09/29 10:56:15;;;;;;;5.20;3.88;;;;;;;17.14;60.72;100189.66;5050148;28;20037;-58
2022/09/29 10:58:44;;;;;;;6.57;4.05;;;;;;;17.28;57.19;100193.44;5055692;28;20020;-58
2022/09/29 11:01:13;;;;;;;6.15;4.07;;;;;;;17.34;57.55;100198.09;5048121;28;20438;-60
2022/09/29 11:03:45;;;;;;;5.07;3.83;;;;;;;17.41;57.04;100195.53;5045640;28;20474;-59
2022/09/29 11:06:12;;;;;;;4.10;3.60;;;;;;;17.59;55.98;100203.31;5048077;28;20095;-59
2022/09/29 11:09:14;;;;;;;3.42;3.10;;;;;;;17.79;60.06;100204.50;5048578;28;20013;-58
2022/09/29 11:11:53;;;;;;;4.97;2.88;;;;;;;17.79;57.11;100204.50;4977447;28;20062;-59
2022/09/29 11:14:29;;;;;;;4.05;2.50;;;;;;;18.01;56.54;100207.34;5038041;28;20596;-58
2022/09/29 11:17:00;;;;;;;8.75;2.25;;;;;;;17.83;54.32;100210.31;5045359;28;20052;-59
2022/09/29 11:19:28;;;;;;;2.60;1.50;;;;;;;17.92;55.60;100204.75;5047343;28;20093;-58
2022/09/29 11:22:00;;;;;;;3.00;1.70;;;;;;;18.08;55.63;100202.91;5045400;28;20056;-58
2022/09/29 11:24:50;;;;;;;2.28;1.88;;;;;;;18.24;56.39;100208.13;5049522;28;20099;-58
2022/09/29 11:27:43;;;;;;;2.92;1.92;;;;;;;18.23;57.37;100205.63;5050266;28;20135;-60
2022/09/29 11:30:14;;;;;;;2.53;2.03;;;;;;;18.29;54.73;100210.28;5053001;28;20538;-59
2022/09/29 11:33:00;;;;;;;2.10;1.90;;;;;;;18.25;56.81;100204.44;5047515;28;20025;-59
2022/09/29 11:35:57;;;;;;;2.10;1.98;;;;;;;18.23;56.17;100206.47;5043240;28;20090;-60
2022/09/29 11:38:52;;;;;;;2.92;2.10;;;;;;;18.25;57.18;100206.28;5047946;28;20035;-58
2022/09/29 11:41:40;;;;;;;2.35;1.60;;;;;;;17.90;52.41;100213.97;5042104;28;20033;-58